Portada
METAR-TAF:

METAR-TAF

Aeroports :

Kununurra, Austràlia

latitud: 15-46S, longitud: 128-42E, altitud: 44 m

Observació

L'informe es va fer fa 14 minuts, a les 22:00 UTC
Vent calma
Temperatura 14°C
Humitat 94%
Pressió 1015 hPa
Visibilitat 10 km o més
Cel ennuvolat a una alçada de 6400 ft

METAR: YPKU 252200Z AUTO 00000KT 9999 // BKN064 14/13 Q1015

Hora: 06:14 (22:14 UTC)

Pronòstic

L'informe es va fer fa 3 hores i 38 minuts, a les 18:36 UTC
Pronòstic vàlid del 25 a les 20 UTC al 26 a les 08 UTC
Vent 8 kt del Nord-Est
Visibilitat 10 km o més
sense núvols per sota de 1500 mi sense presència de cumulonimbus.

TAF: YPKU 251836Z 2520/2608 05008KT CAVOK

Observacions i pronòstics meteorològics de més de 4000 aeroports (METAR i TAF).

Les estacions disponibles són els punts grocs i vermells al mapa.

Posi el ratolí al punt desitjat per veure el nom de l'estació.

Feu clic per veure les observacions i els pronòstics meteorològics.

Per canviar el mapa: feu clic els botons verds amb una creu de color negre per apropar; al botó verd amb un guió per allunyar la imatge; o en les fletxes verdes per a mapes adjacents.


METAR-TAF: